DLH594 EDDF-DNAA
Flight info
| Callsign | DLH594 |
|---|---|
| Flight time | N/A |
| Altitude | 37000 |
| Route | ANEKI3D ANEKI Y163 NATOR DCT TRA DCT RIPUS DCT GERSA DCT SOSON DCT ODINA DCT PIDAD DCT TALEP DCT VAREK DCT ERPIN DCT ETOIL DCT CIRTA UA605 CSO UR978 AS UA604 KAN UR778 KUA UV456 OXORU OXORU1R |
| Aircraft | A343/H-SDE2E3FGHIJ3J5M1P2RWXYZ/LB1D1 |
Departure
| Time | N/A |
|---|---|
| Airport | Frankfurt Main Airport (EDDF) |
Arrival
| Time | 2026-04-29 09:31 |
|---|---|
| Airport | Nnamdi Azikiwe International Airport (DNAA) |
| Time | Latitude | Longitude | Altitude | Speed | Heading |
|---|---|---|---|---|---|
| 2026-04-29 08:57 | 12.24122 | 8.47582 | 38015 ft | 460 kts | 174° |
| 2026-04-29 08:57 | 12.17732 | 8.48211 | 38017 ft | 462 kts | 174° |
| 2026-04-29 08:58 | 12.11326 | 8.48842 | 38020 ft | 463 kts | 174° |
| 2026-04-29 08:58 | 12.04915 | 8.48651 | 38021 ft | 462 kts | 192° |
| 2026-04-29 08:59 | 11.98993 | 8.46250 | 38023 ft | 460 kts | 213° |
| 2026-04-29 08:59 | 11.93725 | 8.42583 | 38003 ft | 461 kts | 216° |
| 2026-04-29 09:00 | 11.88522 | 8.38744 | 38006 ft | 463 kts | 216° |
| 2026-04-29 09:00 | 11.83277 | 8.34889 | 38009 ft | 464 kts | 216° |
| 2026-04-29 09:01 | 11.78028 | 8.31070 | 38008 ft | 463 kts | 216° |
| 2026-04-29 09:01 | 11.72762 | 8.27257 | 38008 ft | 462 kts | 216° |
| 2026-04-29 09:02 | 11.67550 | 8.23486 | 38007 ft | 462 kts | 216° |
| 2026-04-29 09:02 | 11.62301 | 8.19689 | 38010 ft | 462 kts | 216° |
| 2026-04-29 09:03 | 11.57039 | 8.15884 | 38009 ft | 462 kts | 216° |
| 2026-04-29 09:03 | 11.51783 | 8.12084 | 38008 ft | 464 kts | 216° |
| 2026-04-29 09:04 | 11.41323 | 8.04527 | 38011 ft | 465 kts | 216° |
| 2026-04-29 09:05 | 11.36033 | 8.00708 | 38009 ft | 465 kts | 216° |
| 2026-04-29 09:05 | 11.30753 | 7.96898 | 38014 ft | 465 kts | 216° |
| 2026-04-29 09:06 | 11.25510 | 7.93117 | 38013 ft | 464 kts | 216° |
| 2026-04-29 09:06 | 11.20278 | 7.89290 | 38018 ft | 462 kts | 216° |
| 2026-04-29 09:07 | 11.15072 | 7.85443 | 38012 ft | 462 kts | 216° |
| 2026-04-29 09:07 | 11.09861 | 7.81602 | 38013 ft | 462 kts | 216° |
| 2026-04-29 09:07 | 11.07252 | 7.79683 | 37847 ft | 464 kts | 216° |
| 2026-04-29 09:08 | 11.04666 | 7.77783 | 37685 ft | 461 kts | 216° |
| 2026-04-29 09:08 | 11.02051 | 7.75863 | 37420 ft | 465 kts | 216° |
| 2026-04-29 09:08 | 10.99421 | 7.73932 | 37164 ft | 468 kts | 216° |
| 2026-04-29 09:08 | 10.96774 | 7.71990 | 36770 ft | 466 kts | 216° |
| 2026-04-29 09:09 | 10.94149 | 7.70063 | 36225 ft | 467 kts | 216° |
| 2026-04-29 09:09 | 10.91500 | 7.68120 | 35613 ft | 469 kts | 216° |
| 2026-04-29 09:09 | 10.89734 | 7.66825 | 35175 ft | 471 kts | 215° |
| 2026-04-29 09:09 | 10.87073 | 7.64874 | 34514 ft | 474 kts | 215° |
| 2026-04-29 09:10 | 10.84382 | 7.62901 | 33802 ft | 477 kts | 215° |
| 2026-04-29 09:10 | 10.81688 | 7.60926 | 33048 ft | 479 kts | 215° |
| 2026-04-29 09:10 | 10.78972 | 7.58936 | 32327 ft | 481 kts | 215° |
| 2026-04-29 09:10 | 10.75338 | 7.56273 | 31329 ft | 484 kts | 216° |
| 2026-04-29 09:11 | 10.73518 | 7.54940 | 30846 ft | 485 kts | 216° |
| 2026-04-29 09:11 | 10.70779 | 7.52934 | 30305 ft | 483 kts | 215° |
| 2026-04-29 09:11 | 10.68094 | 7.50968 | 29727 ft | 480 kts | 216° |
| 2026-04-29 09:11 | 10.65387 | 7.48985 | 29155 ft | 476 kts | 215° |
| 2026-04-29 09:12 | 10.62716 | 7.47031 | 28608 ft | 472 kts | 214° |
| 2026-04-29 09:12 | 10.59866 | 7.45406 | 28053 ft | 467 kts | 201° |
| 2026-04-29 09:12 | 10.56760 | 7.44559 | 27478 ft | 462 kts | 187° |
| 2026-04-29 09:12 | 10.53581 | 7.44132 | 26934 ft | 458 kts | 185° |
| 2026-04-29 09:13 | 10.50429 | 7.43785 | 26404 ft | 455 kts | 185° |
| 2026-04-29 09:13 | 10.47283 | 7.43452 | 25856 ft | 452 kts | 184° |
| 2026-04-29 09:13 | 10.44154 | 7.43123 | 25316 ft | 449 kts | 184° |
| 2026-04-29 09:13 | 10.41058 | 7.42798 | 24774 ft | 447 kts | 184° |
| 2026-04-29 09:14 | 10.37965 | 7.42474 | 24232 ft | 445 kts | 184° |
| 2026-04-29 09:14 | 10.34888 | 7.42151 | 23691 ft | 442 kts | 184° |
| 2026-04-29 09:14 | 10.31840 | 7.41831 | 23087 ft | 440 kts | 184° |
| 2026-04-29 09:14 | 10.28798 | 7.41512 | 22531 ft | 436 kts | 184° |
| 2026-04-29 09:15 | 10.25797 | 7.41197 | 22000 ft | 433 kts | 184° |
| 2026-04-29 09:15 | 10.22850 | 7.40888 | 21481 ft | 429 kts | 184° |
| 2026-04-29 09:15 | 10.19898 | 7.40578 | 20956 ft | 426 kts | 184° |
| 2026-04-29 09:15 | 10.16953 | 7.40270 | 20429 ft | 423 kts | 184° |
| 2026-04-29 09:16 | 10.14028 | 7.39963 | 19909 ft | 420 kts | 184° |
| 2026-04-29 09:16 | 10.11134 | 7.39660 | 19393 ft | 418 kts | 184° |
| 2026-04-29 09:16 | 10.08240 | 7.39357 | 18875 ft | 416 kts | 184° |
| 2026-04-29 09:16 | 10.05374 | 7.39057 | 18353 ft | 414 kts | 184° |
| 2026-04-29 09:17 | 10.02505 | 7.38756 | 17786 ft | 412 kts | 184° |
| 2026-04-29 09:17 | 9.99668 | 7.38459 | 17250 ft | 409 kts | 184° |
| 2026-04-29 09:17 | 9.96840 | 7.38163 | 16741 ft | 406 kts | 184° |
| 2026-04-29 09:17 | 9.94045 | 7.37870 | 16218 ft | 403 kts | 184° |
| 2026-04-29 09:18 | 9.91257 | 7.37578 | 15697 ft | 401 kts | 184° |
| 2026-04-29 09:18 | 9.88525 | 7.37293 | 15180 ft | 398 kts | 183° |
| 2026-04-29 09:18 | 9.85773 | 7.37277 | 14657 ft | 392 kts | 171° |
| 2026-04-29 09:18 | 9.83086 | 7.37726 | 14159 ft | 389 kts | 166° |
| 2026-04-29 09:19 | 9.80447 | 7.38261 | 13638 ft | 386 kts | 166° |
| 2026-04-29 09:19 | 9.77834 | 7.38796 | 13052 ft | 376 kts | 166° |
| 2026-04-29 09:19 | 9.75341 | 7.39299 | 12564 ft | 356 kts | 166° |
| 2026-04-29 09:19 | 9.72938 | 7.39783 | 12103 ft | 348 kts | 165° |
| 2026-04-29 09:20 | 9.70561 | 7.40263 | 11625 ft | 350 kts | 165° |
| 2026-04-29 09:20 | 9.68162 | 7.40746 | 11153 ft | 351 kts | 165° |
| 2026-04-29 09:20 | 9.65774 | 7.41226 | 10813 ft | 347 kts | 165° |
| 2026-04-29 09:20 | 9.63437 | 7.41691 | 10707 ft | 335 kts | 165° |
| 2026-04-29 09:21 | 9.61190 | 7.42138 | 10597 ft | 324 kts | 165° |
| 2026-04-29 09:21 | 9.59002 | 7.42574 | 10477 ft | 315 kts | 165° |
| 2026-04-29 09:21 | 9.56883 | 7.42997 | 10337 ft | 307 kts | 165° |
| 2026-04-29 09:21 | 9.54793 | 7.43415 | 10090 ft | 304 kts | 164° |
| 2026-04-29 09:22 | 9.52744 | 7.43826 | 9783 ft | 303 kts | 164° |
| 2026-04-29 09:22 | 9.50659 | 7.44244 | 9412 ft | 299 kts | 165° |
| 2026-04-29 09:22 | 9.48657 | 7.44641 | 8897 ft | 294 kts | 166° |
| 2026-04-29 09:22 | 9.46645 | 7.44794 | 8463 ft | 286 kts | 180° |
| 2026-04-29 09:23 | 9.44683 | 7.44638 | 8115 ft | 280 kts | 183° |
| 2026-04-29 09:23 | 9.42749 | 7.44434 | 7780 ft | 281 kts | 184° |
| 2026-04-29 09:23 | 9.40781 | 7.44225 | 7442 ft | 286 kts | 184° |
| 2026-04-29 09:23 | 9.38799 | 7.44015 | 7154 ft | 288 kts | 184° |
| 2026-04-29 09:24 | 9.36800 | 7.43804 | 6865 ft | 288 kts | 184° |
| 2026-04-29 09:24 | 9.34815 | 7.43597 | 6598 ft | 284 kts | 185° |
| 2026-04-29 09:24 | 9.32879 | 7.43393 | 6316 ft | 282 kts | 185° |
| 2026-04-29 09:24 | 9.30941 | 7.43191 | 6021 ft | 279 kts | 185° |
| 2026-04-29 09:25 | 9.29011 | 7.42990 | 5729 ft | 277 kts | 185° |
| 2026-04-29 09:25 | 9.27107 | 7.42792 | 5536 ft | 270 kts | 185° |
| 2026-04-29 09:25 | 9.25264 | 7.42599 | 5424 ft | 261 kts | 185° |
| 2026-04-29 09:25 | 9.23518 | 7.42277 | 5310 ft | 252 kts | 198° |
| 2026-04-29 09:26 | 9.21970 | 7.41496 | 5187 ft | 246 kts | 213° |
| 2026-04-29 09:26 | 9.20594 | 7.40488 | 4995 ft | 244 kts | 216° |
| 2026-04-29 09:26 | 9.19225 | 7.39483 | 4824 ft | 241 kts | 215° |
| 2026-04-29 09:26 | 9.17876 | 7.38516 | 4573 ft | 241 kts | 214° |
| 2026-04-29 09:27 | 9.16506 | 7.37546 | 4369 ft | 238 kts | 213° |
| 2026-04-29 09:27 | 9.15148 | 7.36590 | 4115 ft | 238 kts | 214° |
| 2026-04-29 09:27 | 9.13787 | 7.35629 | 3807 ft | 239 kts | 214° |
| 2026-04-29 09:27 | 9.12437 | 7.34667 | 3474 ft | 233 kts | 214° |
| 2026-04-29 09:28 | 9.11148 | 7.33752 | 3232 ft | 218 kts | 214° |
| 2026-04-29 09:28 | 9.09969 | 7.32913 | 3013 ft | 198 kts | 215° |
| 2026-04-29 09:28 | 9.08879 | 7.32136 | 2707 ft | 184 kts | 214° |
| 2026-04-29 09:28 | 9.07882 | 7.31430 | 2501 ft | 167 kts | 214° |
| 2026-04-29 09:29 | 9.06967 | 7.30779 | 2290 ft | 154 kts | 214° |
| 2026-04-29 09:29 | 9.05346 | 7.29627 | 1923 ft | 132 kts | 214° |
| 2026-04-29 09:29 | 9.04594 | 7.29093 | 1765 ft | 133 kts | 214° |
| 2026-04-29 09:30 | 9.03824 | 7.28545 | 1583 ft | 137 kts | 215° |
| 2026-04-29 09:30 | 9.03045 | 7.27981 | 1411 ft | 139 kts | 215° |
| 2026-04-29 09:30 | 9.02254 | 7.27415 | 1251 ft | 139 kts | 216° |
| 2026-04-29 09:30 | 9.01465 | 7.26860 | 1140 ft | 130 kts | 214° |
| 2026-04-29 09:31 | 9.00917 | 7.26483 | 1109 ft | 56 kts | 214° |
| 2026-04-29 09:31 | 9.00755 | 7.26379 | 1111 ft | 20 kts | 199° |
| 2026-04-29 09:31 | 9.00675 | 7.26411 | 1112 ft | 11 kts | 138° |
| 2026-04-29 09:31 | 9.00629 | 7.26468 | 1110 ft | 7 kts | 103° |
| 2026-04-29 09:32 | 9.00640 | 7.26491 | 1119 ft | 4 kts | 56° |
| 2026-04-29 09:32 | 9.00672 | 7.26520 | 1113 ft | 9 kts | 38° |
| 2026-04-29 09:32 | 9.00758 | 7.26593 | 1116 ft | 19 kts | 47° |
| 2026-04-29 09:32 | 9.00791 | 7.26710 | 1130 ft | 17 kts | 85° |
| 2026-04-29 09:33 | 9.00784 | 7.26811 | 1135 ft | 12 kts | 115° |
| 2026-04-29 09:33 | 9.00725 | 7.26842 | 1133 ft | 9 kts | 173° |
| 2026-04-29 09:33 | 9.00710 | 7.26843 | 1134 ft | 0 kts | 176° |